Etusivu
METAR-TAF:

METAR-TAF

Lentoasemat :

Brownwood, Texas, Yhdysvallat

Leveyspiiri: 31-48N, Pituuspiiri: 098-57W, korkeus merenpinnasta: 422 m

Tämänhetkinen sää

Tämä raportti tehtiin 25 minuuttia sitten, kello 14.55 UTC
Tuuli 13 kn etelästä puuskistuen 16 kn:hen
Lämpötila 14°C
Kosteus 77%
Ilmanpaine 1017 hPa
Näkyvyys: 16.1 km
Muutamia pilviä 1500 ft:n korkeudessa

METAR: KBWD 011455Z AUTO 17013G16KT 10SM FEW015 14/10 A3002 RMK AO1

Aika: 10:20 (15:20 UTC)


TAF: puuttuu

Säähavainnot ja -ennusteet yli 4000 lentoasemalta (METAR- ja TAF-raportit).

Käytössä olevat sääasemat on merkitty karttaan keltaisilla ja punaisilla pisteillä.

Aseta hiiri pisteen päälle nähdäksesi sääaseman nimen.

Klikkaa sitten nähdäksesi säähavainnot ja -ennusteet.

Kartan vaihtaminen: klikkaa mustalla rastilla varustettuja vihreitä pisteitä, niin voit zoomata sisään; viivalla varustettua vihreää pistettä, niin voit zoomata ulos tai vihreitä nuolia, niin pääset viereisille kartoille.


METAR-TAF: